LFJL 210400Z AUTO VRB02KT 9999 SCT038 OVC052 M00/M01 Q1033 NOSIG

ElémentsDécodage
LFJL Station météo située sur l'aérodrome de METZ Nancy-Lorraine
210400Z émis le 21 du mois à 04h00 UTC
AUTO Bulletin édité par un automate
VRB02KT vent de direction variable, 02 noeuds
9999 visibilité horizontale supérieure à 10 Km
SCT038 nuages épars (3/8 à 4/8) à 3800 pieds
OVC052 couverture nuageuse totale (8/8) à 5200 pieds
M00/M01 température 00°C, point de rosée -01°C
 soit une humidité relative de 93%
Q1033 la pression au niveau de la mer (QNH) est de 1033 hPa
NOSIG Pas de changement significatif prévu au cours des deux heures suivant l'heure de l'observation